EDT,Max TemperatureF,Mean TemperatureF,Min TemperatureF,Max Dew PointF,MeanDew PointF,Min DewpointF,Max Humidity, Mean Humidity, Min Humidity, Max Sea Level PressureIn, Mean Sea Level PressureIn, Min Sea Level PressureIn, Max VisibilityMiles, Mean VisibilityMiles, Min VisibilityMiles, Max Wind SpeedMPH, Mean Wind SpeedMPH, Max Gust SpeedMPH,PrecipitationIn, CloudCover, Events, WindDirDegrees
2013-9-1,84,74,64,67,65,63,93,78,52,29.87,29.83,29.78,10,10,5,10,2,,0.00,3,,238
2013-9-2,82,72,63,68,63,55,95,76,48,29.92,29.84,29.80,10,7,1,14,4,17,0.00,4,,308
2013-9-3,68,60,50,55,51,47,92,74,55,30.08,30.02,29.92,10,10,10,12,5,17,0.00,3,,356
2013-9-4,79,64,48,57,52,46,95,71,36,30.16,30.12,30.08,10,8,2,12,2,17,0.00,0,,268
2013-9-5,78,66,53,60,51,41,92,66,31,30.24,30.18,30.12,10,10,7,13,5,16,0.00,1,,17
2013-9-6,75,58,42,52,43,32,96,66,21,30.29,30.22,30.13,10,9,0,6,1,,0.00,0,,103
2013-9-7,84,65,46,64,53,43,91,69,40,30.14,30.05,29.97,10,10,7,10,2,,0.00,2,,250
2013-9-8,78,70,61,65,62,58,90,75,60,30.06,30.01,29.96,10,10,7,13,5,17,0.00,4,,24
2013-9-9,88,72,56,67,62,54,94,72,43,30.07,30.04,29.98,10,9,2,13,3,18,0.00,3,,218
2013-9-10,95,82,69,69,67,62,87,66,33,30.14,30.09,30.04,10,9,5,15,7,20,0.00,1,,233
2013-9-11,88,78,67,72,67,62,89,74,49,30.17,30.10,30.02,10,8,3,14,5,22,0.01,2,,213
2013-9-12,77,68,59,67,62,52,92,79,42,30.02,29.95,29.87,10,8,2,14,6,23,0.42,4,,283
2013-9-13,63,56,49,54,46,41,88,69,46,30.12,30.03,29.95,10,10,10,14,8,21,0.07,4,,3
2013-9-14,67,54,41,46,41,38,92,68,35,30.20,30.15,30.11,10,10,7,9,3,,0.00,0,,21
2013-9-15,74,56,39,54,44,38,95,67,28,30.17,30.12,30.04,10,9,0,13,2,16,0.06,2,,239
2013-9-16,70,60,50,54,51,45,94,75,40,30.33,30.23,30.13,10,8,2,12,6,16,0.07,5,,32
2013-9-17,72,58,43,50,46,41,95,71,36,30.37,30.31,30.22,10,9,2,6,2,,0.00,0,,91
2013-9-18,78,62,47,60,53,44,92,73,40,30.22,30.14,30.07,10,10,5,10,2,,0.00,2,,179
2013-9-19,76,70,63,65,63,60,95,85,62,30.11,30.07,30.00,10,4,0,12,5,,0.00,7,,194
2013-9-20,86,76,65,66,63,59,94,76,41,30.03,29.91,29.81,10,6,1,22,8,32,0.51,4,,226
2013-9-21,70,62,55,65,54,43,94,73,42,29.88,29.78,29.71,10,7,2,14,7,20,0.97,5,,325
2013-9-22,62,53,43,46,42,38,87,68,41,30.05,29.97,29.88,10,10,10,10,7,17,0.00,1,,17
2013-9-23,65,50,36,47,41,35,97,73,40,30.16,30.11,30.05,10,9,0,10,2,,0.00,1,,82
2013-9-24,68,51,34,48,41,34,98,76,37,30.14,30.06,29.97,10,7,0,8,1,,0.00,0,,101
2013-9-25,71,56,40,50,46,39,95,72,38,29.97,29.95,29.91,10,8,3,8,2,,0.00,0,,46
2013-9-26,78,63,48,52,46,39,94,65,24,30.12,30.04,29.96,10,9,3,12,2,,0.00,0,,29
2013-9-27,77,59,41,51,45,39,94,66,30,30.21,30.16,30.12,10,10,7,7,1,,0.00,0,,71
2013-9-28,79,60,41,53,46,40,97,66,28,30.22,30.16,30.09,10,8,0,8,1,,0.00,0,,182
2013-9-29,71,62,52,58,54,49,92,78,53,30.09,30.05,30.02,10,9,5,14,4,18,0.00,5,,222
2013-9-30,70,64,56,59,57,53,90,81,63,30.05,30.02,29.98,10,8,3,10,6,,0.00,7,,231